Orbital elements of COSMOS 2251 DEB
| Launched | 15 June 1993 |
| Flight ended | – |
| Launch site | Plesetsk Missile and Space Complex, Russia |
| Owner | Commonwealth of Independent States (former USSR) |
| NORAD ID | 37528 |
| Date fetched |
Epoch osculation |
Inc. [°] |
Ecc. | RA asc node [hr] |
Arg Peri. [°] |
Mean anom [°] |
Mean motion [rev/day] |
Abs. mag |
| Date fetched |
Epoch osculation |
Inc. [°] |
Ecc. | RA asc node [hr] |
Arg Peri. [°] |
Mean anom [°] |
Mean motion [rev/day] |
Abs. mag |
| 2026 May 06 17:57 | 2026 May 04 12:13:02 | 74.0371 | 0.00209 | 14.2475 | 323.4451 | 36.5279 | 14.51010 | – |
| 2026 May 05 17:57 | 2026 May 04 12:13:02 | 74.0371 | 0.00209 | 14.2475 | 323.4451 | 36.5279 | 14.51010 | – |
| 2026 May 04 17:57 | 2026 Apr 29 13:04:44 | 74.0369 | 0.00207 | 14.8699 | 333.9091 | 36.5279 | 14.51010 | – |
| 2026 May 03 17:57 | 2026 Apr 29 13:04:44 | 74.0369 | 0.00207 | 14.8699 | 333.9091 | 36.5279 | 14.51010 | – |
| 2026 May 02 17:57 | 2026 Apr 29 13:04:44 | 74.0369 | 0.00207 | 14.8699 | 333.9091 | 36.5279 | 14.51010 | – |
| 2026 May 01 17:56 | 2026 Apr 29 13:04:44 | 74.0369 | 0.00207 | 14.8699 | 333.9091 | 36.5279 | 14.51010 | – |
| 2026 Apr 30 17:56 | 2026 Apr 29 13:04:44 | 74.0369 | 0.00207 | 14.8699 | 333.9091 | 36.5279 | 14.51010 | – |
| 2026 Apr 29 17:57 | 2026 Apr 23 14:46:25 | 74.0368 | 0.00204 | 15.6133 | 346.5895 | 36.5279 | 14.51010 | – |
| 2026 Apr 28 17:56 | 2026 Apr 23 14:46:25 | 74.0368 | 0.00204 | 15.6133 | 346.5895 | 36.5279 | 14.51010 | – |
| 2026 Apr 27 17:58 | 2026 Apr 23 14:46:25 | 74.0368 | 0.00204 | 15.6133 | 346.5895 | 36.5279 | 14.51010 | – |
| 2026 Apr 26 17:58 | 2026 Apr 23 14:46:25 | 74.0368 | 0.00204 | 15.6133 | 346.5895 | 36.5279 | 14.51010 | – |
| 2026 Apr 25 17:58 | 2026 Apr 23 14:46:25 | 74.0368 | 0.00204 | 15.6133 | 346.5895 | 36.5279 | 14.51010 | – |
| 2026 Apr 24 17:59 | 2026 Apr 23 14:46:25 | 74.0368 | 0.00204 | 15.6133 | 346.5895 | 36.5279 | 14.51010 | – |
| 2026 Apr 23 17:57 | 2026 Apr 18 02:23:43 | 74.0359 | 0.00202 | 16.3048 | 358.4713 | 36.5279 | 14.51010 | – |
| 2026 Apr 22 17:57 | 2026 Apr 18 02:23:43 | 74.0359 | 0.00202 | 16.3048 | 358.4713 | 36.5279 | 14.51010 | – |
| 2026 Apr 21 17:57 | 2026 Apr 18 02:23:43 | 74.0359 | 0.00202 | 16.3048 | 358.4713 | 36.5279 | 14.51010 | – |
| 2026 Apr 20 17:57 | 2026 Apr 18 02:23:43 | 74.0359 | 0.00202 | 16.3048 | 358.4713 | 36.5279 | 14.51010 | – |
| 2026 Apr 19 17:58 | 2026 Apr 18 02:23:43 | 74.0359 | 0.00202 | 16.3048 | 358.4713 | 36.5279 | 14.51010 | – |
| 2026 Apr 18 17:56 | 2026 Apr 12 04:05:15 | 74.0351 | 0.00199 | 17.0483 | 11.3908 | 36.5279 | 14.51010 | – |
| 2026 Apr 16 17:57 | 2026 Apr 12 04:05:15 | 74.0351 | 0.00199 | 17.0483 | 11.3908 | 36.5279 | 14.51010 | – |
| 2026 Apr 14 17:57 | 2026 Apr 12 04:05:15 | 74.0351 | 0.00199 | 17.0483 | 11.3908 | 36.5279 | 14.51010 | – |
| 2026 Apr 13 17:57 | 2026 Apr 12 04:05:15 | 74.0351 | 0.00199 | 17.0483 | 11.3908 | 36.5279 | 14.51010 | – |
| 2026 Apr 12 17:57 | 2026 Apr 05 18:11:44 | 74.0346 | 0.00197 | 17.8523 | 25.5754 | 36.5279 | 14.51010 | – |
| 2026 Apr 11 17:57 | 2026 Apr 05 18:11:44 | 74.0346 | 0.00197 | 17.8523 | 25.5754 | 36.5279 | 14.51010 | – |
| 2026 Apr 10 17:58 | 2026 Apr 05 18:11:44 | 74.0346 | 0.00197 | 17.8523 | 25.5754 | 36.5279 | 14.51010 | – |
| 2026 Apr 09 18:01 | 2026 Apr 05 18:11:44 | 74.0346 | 0.00197 | 17.8523 | 25.5754 | 36.5279 | 14.51010 | – |